Time;durP1;ratioP1;P1;durP2;ratioP2;P2;SDS_P1;SDS_P2;PMS_P1;PMS_P2;Temp;Humidity;BMP_temperature;BMP_pressure;BME280_temperature;BME280_humidity;BME280_pressure;Samples;Min_cycle;Max_cycle;Signal;HPM_P1;HPM_P2
2023/09/12 00:01:48;;;;;;;150.95;143.98;;;;;;;29.12;44.65;101203.31;5040699;28;20048;-72
2023/09/12 00:04:13;;;;;;;160.43;153.35;;;;;;;29.11;44.55;101201.69;5031858;28;20371;-72
2023/09/12 00:06:39;;;;;;;163.90;156.80;;;;;;;29.09;44.51;101203.22;5023882;28;20348;-72
2023/09/12 00:09:08;;;;;;;152.45;145.27;;;;;;;29.07;44.63;101202.75;5038378;28;20051;-72
2023/09/12 00:11:33;;;;;;;152.55;145.77;;;;;;;29.05;44.51;101197.56;5041037;28;20057;-72
2023/09/12 00:13:59;;;;;;;154.18;147.35;;;;;;;29.04;44.65;101198.69;5044933;28;20147;-72
2023/09/12 00:16:25;;;;;;;154.40;147.50;;;;;;;29.02;44.56;101203.00;5029287;28;20160;-72
2023/09/12 00:18:50;;;;;;;153.90;147.02;;;;;;;29.01;44.62;101204.19;5027070;28;20056;-72
2023/09/12 00:21:15;;;;;;;149.02;142.40;;;;;;;28.99;44.63;101206.50;5034000;28;20437;-72
2023/09/12 00:23:41;;;;;;;146.55;139.90;;;;;;;28.97;44.59;101203.25;5035957;28;20037;-71
2023/09/12 00:26:06;;;;;;;147.70;140.75;;;;;;;28.95;44.61;101198.06;5037669;28;20033;-72
2023/09/12 00:28:34;;;;;;;147.38;140.57;;;;;;;28.92;44.71;101201.56;5032110;28;20120;-72
2023/09/12 00:30:59;;;;;;;154.65;147.75;;;;;;;28.90;44.51;101204.72;5043301;28;20037;-72
2023/09/12 00:33:24;;;;;;;155.50;148.80;;;;;;;28.90;44.59;101201.09;5038827;28;20052;-72
2023/09/12 00:35:50;;;;;;;150.20;143.50;;;;;;;28.88;44.46;101207.03;5023421;28;20038;-72
2023/09/12 00:38:15;;;;;;;150.23;143.73;;;;;;;28.86;44.44;101197.44;5039984;28;20037;-72
2023/09/12 00:40:41;;;;;;;149.60;143.00;;;;;;;28.84;44.27;101208.91;5047941;28;20041;-72
2023/09/12 00:43:06;;;;;;;150.25;143.60;;;;;;;28.81;44.63;101201.28;5033330;28;20068;-72
2023/09/12 00:45:32;;;;;;;148.95;142.40;;;;;;;28.79;44.67;101195.25;5044075;28;20373;-71
2023/09/12 00:48:00;;;;;;;150.20;143.60;;;;;;;28.79;44.53;101192.47;5043226;28;20086;-73
2023/09/12 00:50:26;;;;;;;;;;;;;;;28.71;44.67;101187.09;5037931;28;20036;-72
2023/09/12 00:52:53;;;;;;;143.98;137.48;;;;;;;28.72;44.51;101185.91;5029395;28;20288;-72
2023/09/12 00:55:19;;;;;;;144.85;138.35;;;;;;;28.70;44.80;101183.47;5043255;28;20033;-72
2023/09/12 00:57:45;;;;;;;150.48;143.88;;;;;;;28.67;44.57;101187.78;5034654;28;20052;-71
2023/09/12 01:00:12;;;;;;;144.68;138.25;;;;;;;28.66;44.53;101185.38;5045937;28;20060;-71
2023/09/12 01:02:47;;;;;;;148.35;141.57;;;;;;;28.63;44.21;101188.88;5031431;28;20049;-71
2023/09/12 01:05:14;;;;;;;144.32;137.82;;;;;;;28.63;44.54;101189.66;5039423;28;20037;-72
2023/09/12 01:07:39;;;;;;;151.60;144.80;;;;;;;28.59;44.60;101187.94;5043987;28;20037;-71
2023/09/12 01:10:06;;;;;;;141.02;134.70;;;;;;;28.58;44.62;101191.91;5038232;28;20060;-71
2023/09/12 01:12:32;;;;;;;142.60;136.25;;;;;;;28.57;44.51;101190.28;5048192;28;20040;-72
2023/09/12 01:14:57;;;;;;;144.20;137.45;;;;;;;28.54;44.47;101186.22;5038262;28;20037;-71
2023/09/12 01:17:24;;;;;;;143.77;137.43;;;;;;;28.51;44.57;101192.50;5046521;28;20163;-72
2023/09/12 01:19:50;;;;;;;143.77;137.30;;;;;;;28.51;44.34;101191.69;5029473;28;20116;-72
2023/09/12 01:22:34;;;;;;;142.52;135.93;;;;;;;28.47;44.49;101189.59;5034462;28;20044;-72
2023/09/12 01:25:28;;;;;;;144.75;138.15;;;;;;;28.45;44.61;101189.19;5022868;28;20041;-72
2023/09/12 01:27:55;;;;;;;143.57;137.07;;;;;;;28.43;44.61;101185.91;5027418;28;20049;-72
2023/09/12 01:30:22;;;;;;;144.50;137.88;;;;;;;28.41;44.66;101188.22;5036258;28;20037;-72
2023/09/12 01:32:48;;;;;;;152.93;146.10;;;;;;;28.39;44.64;101182.22;5038650;28;20041;-72
2023/09/12 01:35:14;;;;;;;142.68;136.38;;;;;;;28.36;44.61;101182.91;5030528;28;20032;-72
2023/09/12 01:37:39;;;;;;;144.02;137.25;;;;;;;28.35;44.67;101183.25;5042091;28;20046;-72
2023/09/12 01:40:06;;;;;;;148.32;141.85;;;;;;;28.32;44.70;101187.56;5046796;28;20045;-73
2023/09/12 01:42:38;;;;;;;142.35;135.93;;;;;;;28.30;44.71;101183.50;5030486;28;20108;-72
2023/09/12 01:45:04;;;;;;;144.38;137.82;;;;;;;28.28;44.62;101183.88;5025120;28;20104;-71
2023/09/12 01:47:31;;;;;;;143.88;137.45;;;;;;;28.26;44.64;101191.75;5033622;28;20091;-72
2023/09/12 01:49:58;;;;;;;144.30;137.80;;;;;;;28.24;44.71;101185.75;5050585;28;20037;-72
2023/09/12 01:52:27;;;;;;;147.10;140.65;;;;;;;28.21;44.84;101189.22;5034258;28;20091;-72
2023/09/12 01:54:55;;;;;;;147.25;140.45;;;;;;;28.19;44.77;101186.00;5042380;28;20048;-71
2023/09/12 01:57:21;;;;;;;142.15;135.68;;;;;;;28.17;44.80;101191.06;5022886;28;20113;-72
2023/09/12 01:59:48;;;;;;;142.05;135.65;;;;;;;28.14;44.95;101195.38;5032948;28;20121;-72
2023/09/12 02:02:15;;;;;;;140.73;134.38;;;;;;;28.12;44.91;101191.31;5027284;28;20121;-72
2023/09/12 02:04:41;;;;;;;140.68;134.07;;;;;;;28.10;45.05;101190.88;5026651;28;20037;-72
2023/09/12 02:07:06;;;;;;;139.43;133.00;;;;;;;28.05;44.98;101181.63;5032975;28;20036;-71
2023/09/12 02:09:31;;;;;;;137.82;131.52;;;;;;;28.03;44.96;101194.25;5038618;28;20053;-72
2023/09/12 02:11:57;;;;;;;143.43;136.93;;;;;;;28.01;44.93;101191.00;5031937;28;20490;-72
2023/09/12 02:14:22;;;;;;;137.48;131.27;;;;;;;28.00;44.90;101187.44;5039201;28;20049;-72
2023/09/12 02:16:48;;;;;;;139.55;133.23;;;;;;;27.98;44.90;101189.75;5044344;28;20041;-72
2023/09/12 02:19:13;;;;;;;138.80;132.60;;;;;;;27.96;44.61;101183.72;5035381;28;20065;-72
2023/09/12 02:21:38;;;;;;;141.23;134.95;;;;;;;27.93;45.01;101187.22;5031369;28;20060;-72
2023/09/12 02:24:04;;;;;;;139.65;133.35;;;;;;;27.92;44.92;101184.78;5036325;28;20086;-72
2023/09/12 02:26:30;;;;;;;146.30;139.95;;;;;;;27.90;44.93;101190.69;5034678;28;20065;-72
2023/09/12 02:28:55;;;;;;;140.30;133.88;;;;;;;27.88;44.90;101194.97;5041881;28;20097;-72
2023/09/12 02:31:20;;;;;;;140.43;134.15;;;;;;;27.85;45.03;101199.28;5041472;28;20036;-72
2023/09/12 02:33:46;;;;;;;140.73;134.40;;;;;;;27.82;44.76;101195.22;5037178;28;20073;-73
2023/09/12 02:36:12;;;;;;;140.55;134.05;;;;;;;27.80;45.13;101193.91;5049917;28;20060;-72
2023/09/12 02:38:37;;;;;;;140.00;133.85;;;;;;;27.79;44.79;101192.28;5041807;28;20061;-72
2023/09/12 02:41:02;;;;;;;139.07;132.57;;;;;;;27.77;44.84;101186.28;5047817;28;20029;-72
2023/09/12 02:43:29;;;;;;;137.45;131.35;;;;;;;27.74;45.11;101185.00;5039244;28;20076;-72
2023/09/12 02:45:54;;;;;;;139.88;133.68;;;;;;;27.72;45.04;101178.19;5035487;28;20033;-72
2023/09/12 02:48:20;;;;;;;139.80;133.65;;;;;;;27.70;44.94;101180.53;5035277;28;20367;-72
2023/09/12 02:50:45;;;;;;;140.80;134.55;;;;;;;27.68;44.89;101174.50;5050181;28;20094;-72
2023/09/12 02:53:10;;;;;;;138.15;131.68;;;;;;;27.65;45.02;101164.91;5045407;28;20339;-72
2023/09/12 02:55:40;;;;;;;142.63;135.95;;;;;;;27.63;44.92;101176.34;5038616;28;20067;-73
2023/09/12 02:58:06;;;;;;;142.43;135.73;;;;;;;27.62;45.05;101173.94;5034172;28;20037;-73
2023/09/12 03:00:31;;;;;;;140.00;133.90;;;;;;;27.58;45.16;101164.69;5033177;28;20037;-72
2023/09/12 03:02:56;;;;;;;141.70;135.30;;;;;;;27.57;45.07;101165.84;5031559;28;20489;-71
2023/09/12 03:05:22;;;;;;;137.80;131.60;;;;;;;27.54;44.97;101167.34;5033936;28;20033;-72
2023/09/12 03:07:47;;;;;;;135.25;129.02;;;;;;;27.52;45.24;101166.88;5039176;28;20389;-72
2023/09/12 03:10:13;;;;;;;137.82;131.43;;;;;;;27.50;45.09;101171.97;5041684;28;20037;-72
2023/09/12 03:12:38;;;;;;;135.43;129.38;;;;;;;27.49;44.96;101169.53;5049414;28;20049;-72
2023/09/12 03:15:04;;;;;;;138.55;132.15;;;;;;;27.46;45.06;101171.03;5040541;28;20045;-72
2023/09/12 03:17:29;;;;;;;134.98;128.88;;;;;;;27.44;45.07;101165.03;5031710;28;20470;-72
2023/09/12 03:19:55;;;;;;;136.23;130.02;;;;;;;27.42;45.05;101167.34;5039147;28;20478;-73
2023/09/12 03:22:20;;;;;;;132.20;126.25;;;;;;;27.39;45.14;101168.03;5047831;28;20079;-73
2023/09/12 03:24:46;;;;;;;141.80;135.30;;;;;;;27.37;45.20;101170.38;5048345;28;20037;-72
2023/09/12 03:27:11;;;;;;;135.27;129.23;;;;;;;27.35;45.08;101170.69;5041109;28;20037;-74
2023/09/12 03:29:36;;;;;;;131.65;125.55;;;;;;;27.33;44.80;101174.97;5029952;28;20034;-72
2023/09/12 03:32:02;;;;;;;140.65;134.45;;;;;;;27.30;45.14;101176.47;5037643;28;20460;-73
2023/09/12 03:34:27;;;;;;;131.00;125.15;;;;;;;27.30;44.94;101172.91;5040991;28;20029;-72
2023/09/12 03:36:53;;;;;;;139.45;132.95;;;;;;;27.27;45.28;101170.81;5045610;28;20095;-73
2023/09/12 03:39:18;;;;;;;134.32;128.23;;;;;;;27.26;45.13;101169.19;5042590;28;20033;-72
2023/09/12 03:41:43;;;;;;;131.10;125.28;;;;;;;27.24;44.97;101174.28;5053019;28;20029;-72
2023/09/12 03:44:09;;;;;;;135.52;129.43;;;;;;;27.21;45.01;101173.00;5028373;28;20361;-72
2023/09/12 03:46:34;;;;;;;132.70;126.65;;;;;;;27.19;44.82;101181.69;5061896;28;20038;-72
2023/09/12 03:48:59;;;;;;;135.63;129.40;;;;;;;27.18;45.31;101179.25;5035784;28;20040;-72
2023/09/12 03:51:25;;;;;;;131.05;125.05;;;;;;;27.16;45.03;101176.78;5034161;28;20128;-72
2023/09/12 03:53:51;;;;;;;134.32;128.32;;;;;;;27.14;45.29;101187.41;5013526;28;20540;-73
2023/09/12 03:56:19;;;;;;;131.90;125.90;;;;;;;27.13;45.11;101188.56;5030116;28;20042;-72
2023/09/12 03:58:45;;;;;;;130.10;124.00;;;;;;;27.12;45.09;101189.72;5035683;28;20036;-73
2023/09/12 04:01:11;;;;;;;130.35;124.38;;;;;;;27.10;45.05;101185.66;5042496;28;20037;-72
2023/09/12 04:03:36;;;;;;;135.02;128.93;;;;;;;27.08;45.07;101180.47;5031688;28;20652;-72
2023/09/12 04:06:02;;;;;;;134.88;128.70;;;;;;;27.08;44.92;101179.66;5021831;28;20038;-72
2023/09/12 04:08:27;;;;;;;129.57;123.72;;;;;;;27.05;45.10;101166.50;5048291;28;20040;-73
2023/09/12 04:10:52;;;;;;;135.07;128.90;;;;;;;27.04;45.40;101175.94;5041666;28;20102;-72
2023/09/12 04:13:18;;;;;;;129.82;123.93;;;;;;;27.02;45.09;101172.72;5041190;28;20378;-72
2023/09/12 04:15:43;;;;;;;137.25;131.13;;;;;;;27.01;45.21;101157.22;5034182;28;20034;-72
2023/09/12 04:18:09;;;;;;;129.02;123.13;;;;;;;27.00;45.00;101161.97;5047441;28;20076;-72
2023/09/12 04:20:34;;;;;;;127.55;121.82;;;;;;;26.96;45.01;101159.09;5034864;28;20068;-72
2023/09/12 04:23:03;;;;;;;130.90;124.90;;;;;;;26.96;44.98;101163.81;5033754;28;20091;-72
2023/09/12 04:25:29;;;;;;;133.15;127.05;;;;;;;26.94;45.12;101157.81;5038114;28;20440;-72
2023/09/12 04:27:54;;;;;;;127.63;121.75;;;;;;;26.93;45.03;101158.94;5039779;28;20041;-73
2023/09/12 04:30:20;;;;;;;131.40;125.43;;;;;;;26.90;44.90;101160.44;5041106;28;20034;-72
2023/09/12 04:32:45;;;;;;;134.88;128.75;;;;;;;26.89;45.19;101158.03;5043892;28;20038;-73
2023/09/12 04:35:11;;;;;;;131.90;125.95;;;;;;;26.88;45.08;101156.41;5044061;28;20071;-72
2023/09/12 04:37:37;;;;;;;131.70;125.63;;;;;;;26.86;45.19;101145.69;5028506;28;20473;-72
2023/09/12 04:40:05;;;;;;;126.70;120.97;;;;;;;26.86;45.04;101147.63;5038608;28;20037;-72
2023/09/12 04:42:30;;;;;;;126.95;121.05;;;;;;;26.83;44.90;101143.56;5032741;28;20029;-72
2023/09/12 04:44:56;;;;;;;133.68;127.35;;;;;;;26.82;44.96;101149.47;5038428;28;20036;-72
2023/09/12 04:47:22;;;;;;;129.18;123.30;;;;;;;26.80;45.21;101165.63;5037541;28;20038;-75
2023/09/12 04:49:47;;;;;;;130.18;124.28;;;;;;;26.78;44.97;101165.97;5041113;28;20040;-73
2023/09/12 04:52:12;;;;;;;127.55;121.55;;;;;;;26.77;45.28;101167.94;5037798;28;20033;-73
2023/09/12 04:54:38;;;;;;;133.05;126.97;;;;;;;26.75;45.10;101159.16;5032933;28;20044;-74
2023/09/12 04:57:04;;;;;;;127.35;121.35;;;;;;;26.73;45.13;101152.31;5030528;28;20040;-73
2023/09/12 04:59:29;;;;;;;132.25;125.95;;;;;;;26.72;45.13;101165.38;5034835;28;20371;-72
2023/09/12 05:01:54;;;;;;;132.48;126.45;;;;;;;26.70;45.31;101164.09;5033726;28;20041;-72
2023/09/12 05:04:20;;;;;;;126.30;120.50;;;;;;;26.68;45.10;101153.34;5039723;28;20128;-73
2023/09/12 05:06:46;;;;;;;126.18;120.45;;;;;;;26.66;45.20;101149.31;5039275;28;20203;-72
2023/09/12 05:09:12;;;;;;;129.70;123.85;;;;;;;26.66;45.26;101152.91;5031297;28;20033;-72
2023/09/12 05:11:37;;;;;;;124.72;118.85;;;;;;;26.65;45.34;101153.22;5030857;28;20061;-72
2023/09/12 05:14:05;;;;;;;128.32;122.32;;;;;;;26.62;45.65;101157.50;5028415;28;20036;-73
2023/09/12 05:16:31;;;;;;;123.82;118.13;;;;;;;26.60;45.20;101162.56;5044509;28;20129;-73
2023/09/12 05:18:56;;;;;;;126.70;120.88;;;;;;;26.58;45.23;101156.56;5036748;28;20098;-73
2023/09/12 05:21:22;;;;;;;126.15;120.13;;;;;;;26.57;45.48;101152.19;5028000;28;20041;-75
2023/09/12 05:23:47;;;;;;;129.15;123.22;;;;;;;26.55;45.21;101148.94;5028756;28;20025;-73
2023/09/12 05:26:13;;;;;;;128.30;122.47;;;;;;;26.53;45.31;101149.28;5033135;28;20040;-73
2023/09/12 05:28:38;;;;;;;128.38;122.38;;;;;;;26.52;45.26;101150.41;5032373;28;20117;-73
2023/09/12 05:31:04;;;;;;;129.15;123.25;;;;;;;26.50;45.47;101149.13;5050141;28;20362;-73
2023/09/12 05:33:29;;;;;;;130.27;124.43;;;;;;;26.49;45.31;101153.03;5040650;28;20421;-73
2023/09/12 05:35:54;;;;;;;127.88;122.15;;;;;;;26.47;45.38;101139.53;5033492;28;20064;-73
2023/09/12 05:38:20;;;;;;;125.72;119.97;;;;;;;26.47;45.21;101141.50;5034506;28;20198;-74
2023/09/12 05:40:46;;;;;;;122.13;116.43;;;;;;;26.44;45.09;101137.44;5039590;28;20125;-73
2023/09/12 05:43:11;;;;;;;123.90;118.25;;;;;;;26.44;45.37;101145.75;5050723;28;20036;-73
2023/09/12 05:45:37;;;;;;;125.38;119.60;;;;;;;26.42;45.04;101139.75;5034434;28;20044;-73
2023/09/12 05:48:03;;;;;;;127.45;121.30;;;;;;;26.42;45.42;101141.72;5033928;28;20042;-76
2023/09/12 05:50:29;;;;;;;125.30;119.57;;;;;;;26.40;45.18;101152.31;5044303;28;20044;-73
2023/09/12 05:52:54;;;;;;;124.60;119.00;;;;;;;26.38;45.07;101149.88;5045090;28;20079;-74
2023/09/12 05:55:20;;;;;;;128.82;122.88;;;;;;;26.37;45.20;101144.69;5044114;28;20053;-74
2023/09/12 05:57:47;;;;;;;128.65;122.20;;;;;;;26.37;45.34;101153.00;5033150;28;20042;-71
2023/09/12 06:00:15;;;;;;;123.70;117.50;;;;;;;26.34;45.72;101143.41;5048073;28;20462;-79
2023/09/12 06:02:41;;;;;;;125.40;119.03;;;;;;;26.32;45.38;101152.03;5043654;28;20041;-75
2023/09/12 06:05:07;;;;;;;125.70;119.65;;;;;;;26.31;45.73;101155.97;5036057;28;20037;-75
2023/09/12 06:07:33;;;;;;;122.65;116.72;;;;;;;26.30;45.78;101151.56;5043808;28;20441;-73
2023/09/12 06:09:58;;;;;;;126.93;120.90;;;;;;;26.29;45.82;101161.03;5050690;28;20034;-78
2023/09/12 06:12:24;;;;;;;122.40;116.47;;;;;;;26.28;45.72;101161.38;5042306;28;20047;-74
2023/09/12 06:14:49;;;;;;;126.07;120.20;;;;;;;26.27;45.64;101170.84;5054054;28;20405;-74
2023/09/12 06:17:15;;;;;;;123.15;117.10;;;;;;;26.25;45.55;101173.94;5029458;28;20038;-74
2023/09/12 06:19:40;;;;;;;123.20;117.45;;;;;;;26.25;45.92;101173.13;5044820;28;20041;-77
2023/09/12 06:22:05;;;;;;;121.68;115.93;;;;;;;26.22;45.85;101177.38;5052082;28;20040;-74
2023/09/12 06:24:31;;;;;;;127.65;121.75;;;;;;;26.22;45.80;101184.88;5036189;28;20378;-74
2023/09/12 06:26:57;;;;;;;123.90;118.05;;;;;;;26.20;45.90;101181.63;5032337;28;20127;-76
2023/09/12 06:29:22;;;;;;;121.63;115.72;;;;;;;26.18;45.81;101184.72;5035077;28;20043;-74
2023/09/12 06:31:47;;;;;;;123.63;117.63;;;;;;;26.18;46.02;101181.97;5036296;28;20434;-75
2023/09/12 06:34:13;;;;;;;122.60;116.88;;;;;;;26.17;45.76;101191.44;5032696;28;20032;-76
2023/09/12 06:36:39;;;;;;;124.63;118.53;;;;;;;26.15;45.65;101192.91;5052429;28;20385;-75
2023/09/12 06:39:05;;;;;;;120.75;114.85;;;;;;;26.14;45.85;101189.34;5037431;28;20459;-74
2023/09/12 06:41:30;;;;;;;121.03;115.43;;;;;;;26.13;45.59;101184.94;5048096;28;20176;-76
2023/09/12 06:43:58;;;;;;;124.60;118.72;;;;;;;26.12;45.90;101191.63;5043182;28;20039;-75
2023/09/12 06:46:24;;;;;;;123.20;117.40;;;;;;;26.10;45.69;101200.28;5044860;28;20461;-76
2023/09/12 06:48:50;;;;;;;122.13;116.47;;;;;;;26.08;45.77;101197.06;5031430;28;20041;-74
2023/09/12 06:51:16;;;;;;;126.18;120.28;;;;;;;26.07;45.71;101194.59;5041344;28;20044;-75
2023/09/12 06:53:42;;;;;;;125.45;119.65;;;;;;;26.06;45.66;101202.09;5034210;28;20029;-74
2023/09/12 06:56:07;;;;;;;122.80;117.03;;;;;;;26.05;45.88;101192.16;5041199;28;20095;-75
2023/09/12 06:58:33;;;;;;;120.95;115.35;;;;;;;26.04;45.55;101207.16;5029237;28;20501;-76
2023/09/12 07:01:03;;;;;;;123.05;117.15;;;;;;;26.04;45.82;101204.41;5040422;28;20037;-77
2023/09/12 07:03:29;;;;;;;117.88;112.43;;;;;;;26.02;45.97;101203.13;5032569;28;20033;-74
2023/09/12 07:05:55;;;;;;;123.53;117.82;;;;;;;26.00;46.14;101203.44;5051897;28;20089;-75
2023/09/12 07:08:20;;;;;;;123.03;117.32;;;;;;;26.00;45.96;101208.16;5028365;28;20422;-74
2023/09/12 07:10:46;;;;;;;118.78;113.30;;;;;;;25.98;45.87;101205.75;5039703;28;20106;-74
2023/09/12 07:13:11;;;;;;;123.80;118.00;;;;;;;25.98;45.48;101204.91;5038287;28;20041;-75
2023/09/12 07:15:37;;;;;;;119.80;114.35;;;;;;;25.98;45.99;101202.16;5017381;28;20891;-74
2023/09/12 07:18:02;;;;;;;119.68;114.20;;;;;;;25.96;45.96;101199.75;5029156;28;20034;-75
2023/09/12 07:20:28;;;;;;;122.32;116.70;;;;;;;25.95;45.96;101197.28;5035475;28;20032;-74
2023/09/12 07:22:53;;;;;;;118.32;112.72;;;;;;;25.94;45.81;101196.50;5048444;28;20082;-75
2023/09/12 07:25:20;;;;;;;122.55;116.88;;;;;;;25.93;45.90;101191.28;5040134;28;20033;-74
2023/09/12 07:27:46;;;;;;;121.03;115.45;;;;;;;25.92;46.05;101197.97;5040245;28;20065;-75
2023/09/12 07:30:12;;;;;;;122.95;117.40;;;;;;;25.90;45.98;101193.59;5044251;28;20068;-74
2023/09/12 07:32:37;;;;;;;117.63;112.03;;;;;;;25.90;46.05;101209.38;5030379;28;20034;-75
2023/09/12 07:35:02;;;;;;;116.85;111.38;;;;;;;25.89;45.90;101194.72;5040602;28;20092;-76
2023/09/12 07:37:28;;;;;;;118.43;112.88;;;;;;;25.90;46.08;101188.06;5040668;28;20482;-77
2023/09/12 07:39:53;;;;;;;116.68;111.10;;;;;;;25.89;46.02;101196.69;5046652;28;20037;-75
2023/09/12 07:42:23;;;;;;;119.22;113.45;;;;;;;25.89;45.97;101194.72;5047875;28;20042;-75
2023/09/12 07:44:48;;;;;;;121.80;115.78;;;;;;;25.89;45.93;101196.69;5032959;28;20036;-74
2023/09/12 07:47:14;;;;;;;119.03;113.20;;;;;;;25.89;45.93;101191.16;5032191;28;20120;-76
2023/09/12 07:49:40;;;;;;;120.38;114.60;;;;;;;25.88;45.90;101195.88;5042643;28;20469;-77
2023/09/12 07:52:05;;;;;;;126.07;119.15;;;;;;;25.90;45.79;101195.53;5047644;28;20028;-75
2023/09/12 07:54:31;;;;;;;119.85;114.03;;;;;;;25.90;46.11;101201.06;5042231;28;20033;-76
2023/09/12 07:56:56;;;;;;;120.38;114.15;;;;;;;25.89;45.90;101194.72;5036759;28;20049;-74
2023/09/12 07:59:22;;;;;;;120.22;114.32;;;;;;;25.90;46.17;101201.91;5028218;28;20041;-74
2023/09/12 08:01:47;;;;;;;124.30;116.88;;;;;;;25.92;46.27;101192.44;5045790;28;20033;-75
2023/09/12 08:04:14;;;;;;;124.43;116.97;;;;;;;25.93;46.15;101213.41;5031053;28;20037;-75
2023/09/12 08:06:40;;;;;;;126.05;119.03;;;;;;;25.94;46.08;101217.81;5033044;28;20052;-74
2023/09/12 08:09:06;;;;;;;119.05;113.47;;;;;;;25.96;45.98;101207.25;5038259;28;20048;-74
2023/09/12 08:11:32;;;;;;;122.88;116.38;;;;;;;25.97;46.32;101219.91;5040611;28;20041;-74
2023/09/12 08:13:57;;;;;;;130.80;123.07;;;;;;;25.98;46.21;101224.28;5032816;28;20059;-74
2023/09/12 08:16:23;;;;;;;131.10;123.68;;;;;;;25.99;46.29;101225.94;5050683;28;20025;-77
2023/09/12 08:18:48;;;;;;;121.65;115.25;;;;;;;26.00;46.41;101227.53;5037933;28;20032;-75
2023/09/12 08:21:14;;;;;;;120.93;114.30;;;;;;;26.00;46.25;101231.13;5046440;28;20185;-74
2023/09/12 08:23:39;;;;;;;123.70;117.40;;;;;;;26.02;46.27;101236.31;5014483;28;20034;-78
2023/09/12 08:26:04;;;;;;;126.95;119.68;;;;;;;26.03;46.27;101238.78;5026198;28;20034;-75
2023/09/12 08:28:30;;;;;;;127.65;120.70;;;;;;;26.05;46.25;101247.53;5032926;28;20112;-74
2023/09/12 08:30:55;;;;;;;126.18;119.22;;;;;;;26.06;46.27;101242.81;5037672;28;20037;-75
2023/09/12 08:33:21;;;;;;;128.95;122.25;;;;;;;26.08;46.45;101244.13;5038176;28;20048;-75
2023/09/12 08:35:46;;;;;;;127.78;121.13;;;;;;;26.10;46.58;101243.75;5039201;28;20096;-74
2023/09/12 08:38:11;;;;;;;123.82;117.28;;;;;;;26.12;46.28;101244.25;5033292;28;20037;-73
2023/09/12 08:40:37;;;;;;;128.27;120.22;;;;;;;26.15;46.31;101249.09;5039153;28;20060;-74
2023/09/12 08:43:03;;;;;;;125.68;119.10;;;;;;;26.16;46.65;101242.44;5040856;28;20044;-72
2023/09/12 08:45:29;;;;;;;129.02;122.38;;;;;;;26.16;46.70;101245.19;5043972;28;20043;-73
2023/09/12 08:47:58;;;;;;;124.22;117.78;;;;;;;26.17;46.34;101238.50;5037585;28;20124;-73
2023/09/12 08:50:24;;;;;;;126.93;120.45;;;;;;;26.18;46.64;101244.84;5042883;28;20041;-73
2023/09/12 08:52:50;;;;;;;126.72;120.25;;;;;;;26.19;46.17;101255.59;5043315;28;20035;-73
2023/09/12 08:55:16;;;;;;;136.00;127.82;;;;;;;26.21;46.47;101247.78;5023850;28;20026;-72
2023/09/12 08:57:43;;;;;;;124.00;117.32;;;;;;;26.24;46.67;101251.81;5015679;28;20406;-72
2023/09/12 09:00:12;;;;;;;126.47;120.15;;;;;;;26.26;46.75;101253.09;5036985;28;20040;-73
2023/09/12 09:02:41;;;;;;;126.88;120.05;;;;;;;26.29;46.39;101254.41;5048958;28;20095;-72
2023/09/12 09:05:09;;;;;;;132.05;124.60;;;;;;;26.31;46.51;101255.69;5037261;28;20099;-73
2023/09/12 09:07:37;;;;;;;128.18;121.43;;;;;;;26.32;46.37;101254.50;5036889;28;20080;-73
2023/09/12 09:10:07;;;;;;;127.40;120.78;;;;;;;26.34;46.55;101257.75;5024811;28;20073;-73
2023/09/12 09:12:34;;;;;;;132.70;125.00;;;;;;;26.37;46.64;101247.16;5036907;28;20054;-73
2023/09/12 09:15:23;;;;;;;129.95;122.70;;;;;;;26.37;46.59;101259.03;5032377;28;20045;-73
2023/09/12 09:17:50;;;;;;;133.02;125.75;;;;;;;26.41;46.80;101248.09;5033698;28;20039;-73
2023/09/12 09:20:28;;;;;;;125.00;118.55;;;;;;;26.44;46.65;101244.66;5044805;28;20435;-73
2023/09/12 09:23:11;;;;;;;128.10;121.40;;;;;;;26.45;46.50;101238.78;5043535;28;20041;-73
2023/09/12 09:25:40;;;;;;;125.32;118.97;;;;;;;26.50;46.52;101233.03;5049912;28;20124;-73
2023/09/12 09:28:26;;;;;;;128.75;122.07;;;;;;;26.50;46.57;101232.22;5027406;28;20194;-72
2023/09/12 09:30:54;;;;;;;130.18;123.22;;;;;;;26.55;46.26;101223.72;5068298;28;20052;-72
2023/09/12 09:33:20;;;;;;;130.25;123.28;;;;;;;26.57;46.53;101224.22;5031370;28;20577;-73
2023/09/12 09:35:47;;;;;;;127.75;120.70;;;;;;;26.60;46.73;101219.94;5035872;28;20128;-73
2023/09/12 09:38:16;;;;;;;126.22;120.03;;;;;;;26.61;46.59;101225.16;5035891;28;20030;-73
2023/09/12 09:40:43;;;;;;;127.95;121.25;;;;;;;26.64;46.42;101218.13;5047356;28;20029;-72
2023/09/12 09:43:08;;;;;;;124.30;118.25;;;;;;;26.66;46.43;101213.88;5031192;28;20072;-73
2023/09/12 09:45:43;;;;;;;128.35;121.80;;;;;;;26.68;46.42;101225.41;5048008;28;20032;-73
2023/09/12 09:48:08;;;;;;;125.22;119.05;;;;;;;26.70;46.50;101220.31;5039277;28;20053;-73
2023/09/12 09:50:38;;;;;;;134.88;128.00;;;;;;;26.72;46.71;101209.72;5047291;28;20075;-72
2023/09/12 09:53:05;;;;;;;128.82;122.10;;;;;;;26.74;46.70;101207.41;5047275;28;20098;-72
2023/09/12 09:55:32;;;;;;;124.43;118.30;;;;;;;26.77;46.79;101217.81;5039247;28;20485;-72
2023/09/12 09:57:57;;;;;;;132.35;124.78;;;;;;;26.80;46.72;101218.28;5042537;28;20367;-72
2023/09/12 10:00:23;;;;;;;127.95;121.30;;;;;;;26.82;46.85;101216.00;5031234;28;20041;-72
2023/09/12 10:02:53;;;;;;;138.98;132.45;;;;;;;26.84;46.88;101224.75;5040773;28;20037;-73
2023/09/12 10:05:20;;;;;;;139.60;132.32;;;;;;;26.86;46.61;101222.44;5028924;28;20081;-72
2023/09/12 10:07:51;;;;;;;128.65;122.28;;;;;;;26.87;47.05;101219.34;5045255;28;20033;-72
2023/09/12 10:10:18;;;;;;;125.18;118.95;;;;;;;26.89;46.90;101225.38;5038116;28;20354;-73
2023/09/12 10:13:03;;;;;;;128.68;121.82;;;;;;;26.90;46.85;101224.22;5043960;28;20045;-72
2023/09/12 10:15:30;;;;;;;133.88;127.10;;;;;;;26.93;46.89;101219.94;5033121;28;20115;-71
2023/09/12 10:17:57;;;;;;;131.25;124.47;;;;;;;26.93;46.66;101214.41;5030260;28;20072;-72
2023/09/12 10:20:31;;;;;;;127.93;121.68;;;;;;;26.97;47.01;101215.34;5027441;28;20040;-72
2023/09/12 10:23:11;;;;;;;132.20;124.45;;;;;;;26.97;46.88;101210.59;5042070;28;20037;-72
2023/09/12 10:25:38;;;;;;;130.65;124.43;;;;;;;26.99;46.92;101210.28;5058436;28;20140;-73
2023/09/12 10:28:05;;;;;;;128.57;121.45;;;;;;;27.02;47.03;101219.88;5049348;28;20037;-72
2023/09/12 10:30:32;;;;;;;129.55;123.20;;;;;;;27.03;46.86;101218.69;5026851;28;20072;-72
2023/09/12 10:32:58;;;;;;;131.68;125.40;;;;;;;27.05;47.00;101217.19;5034459;28;20049;-71
2023/09/12 10:35:23;;;;;;;129.32;122.88;;;;;;;27.08;47.22;101219.28;5028038;28;20041;-72
2023/09/12 10:37:50;;;;;;;131.13;124.68;;;;;;;27.10;47.10;101219.75;5031974;28;20034;-71
2023/09/12 10:40:17;;;;;;;133.02;125.63;;;;;;;27.12;46.86;101222.19;5042885;28;20458;-73
2023/09/12 10:42:43;;;;;;;137.27;129.77;;;;;;;27.13;46.81;101213.50;5029710;28;20084;-72
2023/09/12 10:45:09;;;;;;;135.68;128.27;;;;;;;27.15;47.02;101216.75;5035029;28;20642;-72
2023/09/12 10:47:38;;;;;;;137.30;129.38;;;;;;;27.18;46.87;101215.28;5043379;28;20044;-71
2023/09/12 10:50:04;;;;;;;136.95;129.93;;;;;;;27.17;47.19;101211.69;5035077;28;20033;-72
2023/09/12 10:52:30;;;;;;;135.32;128.00;;;;;;;27.19;47.08;101214.97;5031652;28;20044;-71